sensor_id;sensor_type;location;lat;lon;timestamp;P1;durP1;ratioP1;P2;durP2;ratioP2
18716;SDS011;9487;50.892;6.906;2022-08-26T00:01:44;15.93;;;6.50;;
18716;SDS011;9487;50.892;6.906;2022-08-26T00:04:13;11.93;;;7.10;;
18716;SDS011;9487;50.892;6.906;2022-08-26T00:06:40;14.30;;;7.77;;
18716;SDS011;9487;50.892;6.906;2022-08-26T00:09:08;11.53;;;8.20;;
18716;SDS011;9487;50.892;6.906;2022-08-26T00:11:35;13.50;;;8.50;;
18716;SDS011;9487;50.892;6.906;2022-08-26T00:14:02;13.00;;;8.37;;
18716;SDS011;9487;50.892;6.906;2022-08-26T00:16:29;11.93;;;10.27;;
18716;SDS011;9487;50.892;6.906;2022-08-26T00:18:56;16.20;;;11.93;;
18716;SDS011;9487;50.892;6.906;2022-08-26T00:21:25;14.67;;;12.73;;
18716;SDS011;9487;50.892;6.906;2022-08-26T00:23:52;15.40;;;13.80;;
18716;SDS011;9487;50.892;6.906;2022-08-26T00:26:18;18.33;;;14.30;;
18716;SDS011;9487;50.892;6.906;2022-08-26T00:28:45;22.13;;;15.40;;
18716;SDS011;9487;50.892;6.906;2022-08-26T00:31:14;17.57;;;15.50;;
18716;SDS011;9487;50.892;6.906;2022-08-26T00:33:40;20.47;;;18.37;;
18716;SDS011;9487;50.892;6.906;2022-08-26T00:36:08;23.83;;;21.30;;
18716;SDS011;9487;50.892;6.906;2022-08-26T00:38:36;29.60;;;23.60;;
18716;SDS011;9487;50.892;6.906;2022-08-26T00:41:03;27.47;;;24.87;;
18716;SDS011;9487;50.892;6.906;2022-08-26T00:43:31;33.47;;;30.60;;
18716;SDS011;9487;50.892;6.906;2022-08-26T00:46:04;37.43;;;34.00;;
18716;SDS011;9487;50.892;6.906;2022-08-26T00:48:35;40.50;;;36.80;;
18716;SDS011;9487;50.892;6.906;2022-08-26T00:51:05;40.17;;;36.23;;
18716;SDS011;9487;50.892;6.906;2022-08-26T00:53:41;42.87;;;38.80;;
18716;SDS011;9487;50.892;6.906;2022-08-26T00:56:12;44.80;;;40.80;;
18716;SDS011;9487;50.892;6.906;2022-08-26T00:58:43;44.93;;;40.90;;
18716;SDS011;9487;50.892;6.906;2022-08-26T01:01:12;49.60;;;45.30;;
18716;SDS011;9487;50.892;6.906;2022-08-26T01:03:39;51.67;;;47.07;;
18716;SDS011;9487;50.892;6.906;2022-08-26T01:06:08;56.07;;;50.67;;
18716;SDS011;9487;50.892;6.906;2022-08-26T01:08:36;55.07;;;49.93;;
18716;SDS011;9487;50.892;6.906;2022-08-26T01:11:04;56.27;;;51.33;;
18716;SDS011;9487;50.892;6.906;2022-08-26T01:13:31;61.53;;;56.03;;
18716;SDS011;9487;50.892;6.906;2022-08-26T01:16:02;65.53;;;59.53;;
18716;SDS011;9487;50.892;6.906;2022-08-26T01:18:32;65.33;;;59.67;;
18716;SDS011;9487;50.892;6.906;2022-08-26T01:21:01;70.33;;;63.93;;
18716;SDS011;9487;50.892;6.906;2022-08-26T01:23:34;74.93;;;68.20;;
18716;SDS011;9487;50.892;6.906;2022-08-26T01:26:07;74.00;;;67.30;;
18716;SDS011;9487;50.892;6.906;2022-08-26T01:28:36;75.30;;;68.53;;
18716;SDS011;9487;50.892;6.906;2022-08-26T01:31:05;72.27;;;65.27;;
18716;SDS011;9487;50.892;6.906;2022-08-26T01:33:37;75.80;;;69.17;;
18716;SDS011;9487;50.892;6.906;2022-08-26T01:36:10;74.20;;;67.43;;
18716;SDS011;9487;50.892;6.906;2022-08-26T01:38:40;74.57;;;67.70;;
18716;SDS011;9487;50.892;6.906;2022-08-26T01:41:08;75.03;;;68.00;;
18716;SDS011;9487;50.892;6.906;2022-08-26T01:43:39;74.37;;;67.70;;
18716;SDS011;9487;50.892;6.906;2022-08-26T01:46:09;67.90;;;61.33;;
18716;SDS011;9487;50.892;6.906;2022-08-26T01:48:37;65.93;;;60.13;;
18716;SDS011;9487;50.892;6.906;2022-08-26T01:51:06;70.10;;;63.80;;
18716;SDS011;9487;50.892;6.906;2022-08-26T01:53:36;72.13;;;65.27;;
18716;SDS011;9487;50.892;6.906;2022-08-26T01:56:05;64.13;;;58.07;;
18716;SDS011;9487;50.892;6.906;2022-08-26T01:58:35;63.33;;;57.33;;
18716;SDS011;9487;50.892;6.906;2022-08-26T02:01:06;58.97;;;53.80;;
18716;SDS011;9487;50.892;6.906;2022-08-26T02:03:33;64.77;;;58.93;;
18716;SDS011;9487;50.892;6.906;2022-08-26T02:06:08;66.17;;;59.97;;
18716;SDS011;9487;50.892;6.906;2022-08-26T02:08:36;61.80;;;56.17;;
18716;SDS011;9487;50.892;6.906;2022-08-26T02:11:06;62.03;;;56.43;;
18716;SDS011;9487;50.892;6.906;2022-08-26T02:13:37;63.93;;;57.73;;
18716;SDS011;9487;50.892;6.906;2022-08-26T02:16:06;59.70;;;54.13;;
18716;SDS011;9487;50.892;6.906;2022-08-26T02:18:35;59.90;;;54.40;;
18716;SDS011;9487;50.892;6.906;2022-08-26T02:21:05;59.27;;;53.70;;
18716;SDS011;9487;50.892;6.906;2022-08-26T02:23:34;51.23;;;46.67;;
18716;SDS011;9487;50.892;6.906;2022-08-26T02:26:03;58.77;;;53.33;;
18716;SDS011;9487;50.892;6.906;2022-08-26T02:28:34;56.70;;;51.33;;
18716;SDS011;9487;50.892;6.906;2022-08-26T02:31:05;54.77;;;49.73;;
18716;SDS011;9487;50.892;6.906;2022-08-26T02:33:32;50.40;;;45.80;;
18716;SDS011;9487;50.892;6.906;2022-08-26T02:35:59;57.03;;;51.70;;
18716;SDS011;9487;50.892;6.906;2022-08-26T02:38:26;56.80;;;51.40;;
18716;SDS011;9487;50.892;6.906;2022-08-26T02:40:53;50.93;;;46.37;;
18716;SDS011;9487;50.892;6.906;2022-08-26T02:43:21;49.30;;;44.90;;
18716;SDS011;9487;50.892;6.906;2022-08-26T02:45:48;48.70;;;44.30;;
18716;SDS011;9487;50.892;6.906;2022-08-26T02:48:16;49.90;;;45.23;;
18716;SDS011;9487;50.892;6.906;2022-08-26T02:50:45;53.23;;;48.07;;
18716;SDS011;9487;50.892;6.906;2022-08-26T02:53:13;55.13;;;49.83;;
18716;SDS011;9487;50.892;6.906;2022-08-26T02:55:40;55.47;;;50.27;;
18716;SDS011;9487;50.892;6.906;2022-08-26T02:58:08;54.47;;;49.30;;
18716;SDS011;9487;50.892;6.906;2022-08-26T03:00:36;55.87;;;50.70;;
18716;SDS011;9487;50.892;6.906;2022-08-26T03:03:04;56.30;;;51.27;;
18716;SDS011;9487;50.892;6.906;2022-08-26T03:05:31;54.63;;;49.20;;
18716;SDS011;9487;50.892;6.906;2022-08-26T03:07:58;52.77;;;47.80;;
18716;SDS011;9487;50.892;6.906;2022-08-26T03:10:25;49.20;;;44.30;;
18716;SDS011;9487;50.892;6.906;2022-08-26T03:12:52;53.77;;;48.47;;
18716;SDS011;9487;50.892;6.906;2022-08-26T03:15:19;55.47;;;50.33;;
18716;SDS011;9487;50.892;6.906;2022-08-26T03:17:47;51.80;;;47.17;;
18716;SDS011;9487;50.892;6.906;2022-08-26T03:20:14;58.00;;;52.47;;
18716;SDS011;9487;50.892;6.906;2022-08-26T03:22:41;57.00;;;51.70;;
18716;SDS011;9487;50.892;6.906;2022-08-26T03:25:11;58.43;;;52.77;;
18716;SDS011;9487;50.892;6.906;2022-08-26T03:27:40;58.50;;;52.73;;
18716;SDS011;9487;50.892;6.906;2022-08-26T03:30:07;58.07;;;52.37;;
18716;SDS011;9487;50.892;6.906;2022-08-26T03:32:54;58.17;;;52.63;;
18716;SDS011;9487;50.892;6.906;2022-08-26T03:35:21;57.63;;;52.00;;
18716;SDS011;9487;50.892;6.906;2022-08-26T03:37:49;58.37;;;52.37;;
18716;SDS011;9487;50.892;6.906;2022-08-26T03:40:16;52.47;;;47.53;;
18716;SDS011;9487;50.892;6.906;2022-08-26T03:42:44;57.10;;;51.37;;
18716;SDS011;9487;50.892;6.906;2022-08-26T03:45:12;55.73;;;50.40;;
18716;SDS011;9487;50.892;6.906;2022-08-26T03:47:40;54.87;;;49.23;;
18716;SDS011;9487;50.892;6.906;2022-08-26T03:50:09;56.03;;;50.73;;
18716;SDS011;9487;50.892;6.906;2022-08-26T03:52:38;56.73;;;51.07;;
18716;SDS011;9487;50.892;6.906;2022-08-26T03:55:06;58.57;;;52.37;;
18716;SDS011;9487;50.892;6.906;2022-08-26T03:57:33;57.53;;;51.73;;
18716;SDS011;9487;50.892;6.906;2022-08-26T04:00:00;58.93;;;53.37;;
18716;SDS011;9487;50.892;6.906;2022-08-26T04:02:29;58.53;;;52.73;;
18716;SDS011;9487;50.892;6.906;2022-08-26T04:04:55;57.30;;;51.57;;
18716;SDS011;9487;50.892;6.906;2022-08-26T04:07:24;56.43;;;50.67;;
18716;SDS011;9487;50.892;6.906;2022-08-26T04:09:53;54.73;;;49.43;;
18716;SDS011;9487;50.892;6.906;2022-08-26T04:12:20;50.87;;;45.83;;
18716;SDS011;9487;50.892;6.906;2022-08-26T04:14:47;53.47;;;48.17;;
18716;SDS011;9487;50.892;6.906;2022-08-26T04:17:14;51.83;;;46.57;;
18716;SDS011;9487;50.892;6.906;2022-08-26T04:19:41;53.07;;;47.60;;
18716;SDS011;9487;50.892;6.906;2022-08-26T04:22:08;47.27;;;42.60;;
18716;SDS011;9487;50.892;6.906;2022-08-26T04:24:36;51.90;;;46.80;;
18716;SDS011;9487;50.892;6.906;2022-08-26T04:27:04;48.90;;;43.93;;
18716;SDS011;9487;50.892;6.906;2022-08-26T04:29:31;52.87;;;47.47;;
18716;SDS011;9487;50.892;6.906;2022-08-26T04:31:57;49.77;;;44.90;;
18716;SDS011;9487;50.892;6.906;2022-08-26T04:34:25;51.53;;;46.03;;
18716;SDS011;9487;50.892;6.906;2022-08-26T04:36:52;49.53;;;44.73;;
18716;SDS011;9487;50.892;6.906;2022-08-26T04:39:20;50.40;;;45.13;;
18716;SDS011;9487;50.892;6.906;2022-08-26T04:41:48;49.23;;;44.40;;
18716;SDS011;9487;50.892;6.906;2022-08-26T04:44:15;47.27;;;42.40;;
18716;SDS011;9487;50.892;6.906;2022-08-26T04:46:42;48.87;;;44.23;;
18716;SDS011;9487;50.892;6.906;2022-08-26T04:49:10;49.23;;;44.33;;
18716;SDS011;9487;50.892;6.906;2022-08-26T04:51:37;47.30;;;42.30;;
18716;SDS011;9487;50.892;6.906;2022-08-26T04:54:05;41.07;;;37.07;;
18716;SDS011;9487;50.892;6.906;2022-08-26T04:56:34;44.27;;;39.87;;
18716;SDS011;9487;50.892;6.906;2022-08-26T04:59:03;45.03;;;40.27;;
18716;SDS011;9487;50.892;6.906;2022-08-26T05:01:32;43.23;;;37.87;;
18716;SDS011;9487;50.892;6.906;2022-08-26T05:04:00;41.47;;;37.40;;
18716;SDS011;9487;50.892;6.906;2022-08-26T05:06:28;40.60;;;36.70;;
18716;SDS011;9487;50.892;6.906;2022-08-26T05:08:55;39.60;;;35.63;;
18716;SDS011;9487;50.892;6.906;2022-08-26T05:11:22;37.53;;;33.80;;
18716;SDS011;9487;50.892;6.906;2022-08-26T05:13:48;38.70;;;35.10;;
18716;SDS011;9487;50.892;6.906;2022-08-26T05:16:17;40.97;;;37.10;;
18716;SDS011;9487;50.892;6.906;2022-08-26T05:18:44;35.50;;;32.10;;
18716;SDS011;9487;50.892;6.906;2022-08-26T05:21:14;39.13;;;35.23;;
18716;SDS011;9487;50.892;6.906;2022-08-26T05:23:42;36.50;;;32.77;;
18716;SDS011;9487;50.892;6.906;2022-08-26T05:26:09;38.10;;;33.90;;
18716;SDS011;9487;50.892;6.906;2022-08-26T05:28:36;33.60;;;30.07;;
18716;SDS011;9487;50.892;6.906;2022-08-26T05:31:09;37.80;;;33.83;;
18716;SDS011;9487;50.892;6.906;2022-08-26T05:33:39;37.13;;;33.27;;
18716;SDS011;9487;50.892;6.906;2022-08-26T05:36:06;34.67;;;31.37;;
18716;SDS011;9487;50.892;6.906;2022-08-26T05:38:34;34.10;;;29.30;;
18716;SDS011;9487;50.892;6.906;2022-08-26T05:41:01;32.67;;;29.33;;
18716;SDS011;9487;50.892;6.906;2022-08-26T05:43:28;32.73;;;29.73;;
18716;SDS011;9487;50.892;6.906;2022-08-26T05:45:55;31.27;;;27.97;;
18716;SDS011;9487;50.892;6.906;2022-08-26T05:48:22;33.07;;;29.87;;
18716;SDS011;9487;50.892;6.906;2022-08-26T05:50:51;34.47;;;30.07;;
18716;SDS011;9487;50.892;6.906;2022-08-26T05:53:19;26.80;;;24.20;;
18716;SDS011;9487;50.892;6.906;2022-08-26T05:58:14;26.17;;;23.43;;
18716;SDS011;9487;50.892;6.906;2022-08-26T06:00:44;27.77;;;24.87;;
18716;SDS011;9487;50.892;6.906;2022-08-26T06:03:12;28.67;;;25.77;;
18716;SDS011;9487;50.892;6.906;2022-08-26T06:05:39;29.93;;;27.03;;
18716;SDS011;9487;50.892;6.906;2022-08-26T06:08:08;29.77;;;26.67;;
18716;SDS011;9487;50.892;6.906;2022-08-26T06:10:42;27.23;;;24.53;;
18716;SDS011;9487;50.892;6.906;2022-08-26T06:13:10;28.57;;;25.73;;
18716;SDS011;9487;50.892;6.906;2022-08-26T06:15:38;27.90;;;25.27;;
18716;SDS011;9487;50.892;6.906;2022-08-26T06:18:07;26.57;;;23.90;;
18716;SDS011;9487;50.892;6.906;2022-08-26T06:20:34;25.83;;;23.10;;
18716;SDS011;9487;50.892;6.906;2022-08-26T06:23:01;31.07;;;24.50;;
18716;SDS011;9487;50.892;6.906;2022-08-26T06:25:47;25.83;;;23.13;;
18716;SDS011;9487;50.892;6.906;2022-08-26T06:28:14;27.53;;;23.00;;
18716;SDS011;9487;50.892;6.906;2022-08-26T06:30:41;27.93;;;23.03;;
18716;SDS011;9487;50.892;6.906;2022-08-26T06:33:08;25.43;;;22.83;;
18716;SDS011;9487;50.892;6.906;2022-08-26T06:35:36;22.93;;;20.70;;
18716;SDS011;9487;50.892;6.906;2022-08-26T06:38:03;23.40;;;20.93;;
18716;SDS011;9487;50.892;6.906;2022-08-26T06:40:31;22.27;;;19.60;;
18716;SDS011;9487;50.892;6.906;2022-08-26T06:42:59;22.73;;;20.53;;
18716;SDS011;9487;50.892;6.906;2022-08-26T06:45:26;23.27;;;20.90;;
18716;SDS011;9487;50.892;6.906;2022-08-26T06:47:53;23.07;;;20.77;;
18716;SDS011;9487;50.892;6.906;2022-08-26T06:50:19;24.07;;;21.40;;
18716;SDS011;9487;50.892;6.906;2022-08-26T06:52:46;22.10;;;19.87;;
18716;SDS011;9487;50.892;6.906;2022-08-26T06:55:13;22.87;;;20.67;;
18716;SDS011;9487;50.892;6.906;2022-08-26T06:57:40;22.77;;;20.30;;
18716;SDS011;9487;50.892;6.906;2022-08-26T07:00:09;21.87;;;19.13;;
18716;SDS011;9487;50.892;6.906;2022-08-26T07:02:36;22.47;;;20.17;;
18716;SDS011;9487;50.892;6.906;2022-08-26T07:05:04;22.20;;;20.00;;
18716;SDS011;9487;50.892;6.906;2022-08-26T07:07:32;25.00;;;20.73;;
18716;SDS011;9487;50.892;6.906;2022-08-26T07:09:58;21.37;;;18.93;;
18716;SDS011;9487;50.892;6.906;2022-08-26T07:12:25;20.93;;;18.73;;
18716;SDS011;9487;50.892;6.906;2022-08-26T07:14:52;19.67;;;17.77;;
18716;SDS011;9487;50.892;6.906;2022-08-26T07:17:21;19.77;;;17.67;;
18716;SDS011;9487;50.892;6.906;2022-08-26T07:19:47;20.53;;;17.87;;
18716;SDS011;9487;50.892;6.906;2022-08-26T07:22:14;18.47;;;16.27;;
18716;SDS011;9487;50.892;6.906;2022-08-26T07:24:42;18.13;;;16.27;;
18716;SDS011;9487;50.892;6.906;2022-08-26T07:27:10;19.73;;;16.33;;
18716;SDS011;9487;50.892;6.906;2022-08-26T07:29:40;17.70;;;15.90;;
18716;SDS011;9487;50.892;6.906;2022-08-26T07:32:09;20.43;;;16.13;;
18716;SDS011;9487;50.892;6.906;2022-08-26T07:34:40;18.63;;;16.63;;
18716;SDS011;9487;50.892;6.906;2022-08-26T07:37:07;17.33;;;15.37;;
18716;SDS011;9487;50.892;6.906;2022-08-26T07:39:35;18.90;;;16.37;;
18716;SDS011;9487;50.892;6.906;2022-08-26T07:42:02;16.83;;;15.20;;
18716;SDS011;9487;50.892;6.906;2022-08-26T07:44:31;16.57;;;14.80;;
18716;SDS011;9487;50.892;6.906;2022-08-26T07:46:58;17.57;;;15.47;;
18716;SDS011;9487;50.892;6.906;2022-08-26T07:49:25;20.77;;;18.57;;
18716;SDS011;9487;50.892;6.906;2022-08-26T07:51:53;22.50;;;20.20;;
18716;SDS011;9487;50.892;6.906;2022-08-26T07:54:21;21.10;;;18.93;;
18716;SDS011;9487;50.892;6.906;2022-08-26T07:56:48;20.37;;;18.27;;
18716;SDS011;9487;50.892;6.906;2022-08-26T07:59:15;22.63;;;20.27;;
18716;SDS011;9487;50.892;6.906;2022-08-26T08:01:43;20.97;;;18.73;;
18716;SDS011;9487;50.892;6.906;2022-08-26T08:04:11;24.20;;;18.90;;
18716;SDS011;9487;50.892;6.906;2022-08-26T08:06:38;23.23;;;18.60;;
18716;SDS011;9487;50.892;6.906;2022-08-26T08:09:06;22.17;;;20.03;;
18716;SDS011;9487;50.892;6.906;2022-08-26T08:11:33;34.90;;;30.37;;
18716;SDS011;9487;50.892;6.906;2022-08-26T08:14:00;38.60;;;34.73;;
18716;SDS011;9487;50.892;6.906;2022-08-26T08:16:28;35.13;;;29.87;;
18716;SDS011;9487;50.892;6.906;2022-08-26T08:18:55;26.17;;;23.67;;
18716;SDS011;9487;50.892;6.906;2022-08-26T08:21:22;24.33;;;21.77;;
18716;SDS011;9487;50.892;6.906;2022-08-26T08:23:50;24.10;;;19.10;;
18716;SDS011;9487;50.892;6.906;2022-08-26T08:26:19;23.53;;;21.20;;
18716;SDS011;9487;50.892;6.906;2022-08-26T08:28:46;27.03;;;24.23;;
18716;SDS011;9487;50.892;6.906;2022-08-26T08:31:17;30.93;;;27.83;;
18716;SDS011;9487;50.892;6.906;2022-08-26T08:33:45;25.87;;;23.53;;
18716;SDS011;9487;50.892;6.906;2022-08-26T08:36:12;28.20;;;25.30;;
18716;SDS011;9487;50.892;6.906;2022-08-26T08:38:40;26.57;;;23.57;;
18716;SDS011;9487;50.892;6.906;2022-08-26T08:41:13;24.10;;;21.53;;
18716;SDS011;9487;50.892;6.906;2022-08-26T08:43:56;22.13;;;19.90;;
18716;SDS011;9487;50.892;6.906;2022-08-26T08:46:26;20.93;;;18.77;;
18716;SDS011;9487;50.892;6.906;2022-08-26T08:48:55;19.77;;;17.77;;
18716;SDS011;9487;50.892;6.906;2022-08-26T08:51:28;21.27;;;19.10;;
18716;SDS011;9487;50.892;6.906;2022-08-26T08:53:59;25.27;;;22.63;;
18716;SDS011;9487;50.892;6.906;2022-08-26T08:56:30;26.83;;;24.00;;
18716;SDS011;9487;50.892;6.906;2022-08-26T08:59:03;33.97;;;30.23;;
18716;SDS011;9487;50.892;6.906;2022-08-26T09:01:44;36.23;;;32.63;;
18716;SDS011;9487;50.892;6.906;2022-08-26T09:04:34;36.00;;;32.27;;
18716;SDS011;9487;50.892;6.906;2022-08-26T09:07:18;30.43;;;27.57;;
18716;SDS011;9487;50.892;6.906;2022-08-26T09:09:48;31.05;;;28.05;;
18716;SDS011;9487;50.892;6.906;2022-08-26T09:12:20;28.23;;;25.40;;
18716;SDS011;9487;50.892;6.906;2022-08-26T09:14:49;24.47;;;22.10;;
18716;SDS011;9487;50.892;6.906;2022-08-26T09:17:21;25.10;;;20.33;;
18716;SDS011;9487;50.892;6.906;2022-08-26T09:20:00;19.70;;;17.63;;
18716;SDS011;9487;50.892;6.906;2022-08-26T09:22:36;20.50;;;18.37;;
18716;SDS011;9487;50.892;6.906;2022-08-26T09:25:05;18.97;;;16.30;;
18716;SDS011;9487;50.892;6.906;2022-08-26T09:27:37;18.33;;;16.70;;
18716;SDS011;9487;50.892;6.906;2022-08-26T09:30:06;18.83;;;16.77;;
18716;SDS011;9487;50.892;6.906;2022-08-26T09:32:35;17.57;;;15.97;;
18716;SDS011;9487;50.892;6.906;2022-08-26T09:35:03;17.47;;;15.60;;
18716;SDS011;9487;50.892;6.906;2022-08-26T09:37:33;17.30;;;15.53;;
18716;SDS011;9487;50.892;6.906;2022-08-26T09:40:13;17.00;;;15.53;;
18716;SDS011;9487;50.892;6.906;2022-08-26T09:42:59;18.43;;;16.57;;
18716;SDS011;9487;50.892;6.906;2022-08-26T09:45:34;19.53;;;17.60;;
18716;SDS011;9487;50.892;6.906;2022-08-26T09:48:03;18.70;;;16.80;;
18716;SDS011;9487;50.892;6.906;2022-08-26T09:50:32;18.47;;;16.73;;
18716;SDS011;9487;50.892;6.906;2022-08-26T09:53:05;18.70;;;16.87;;
18716;SDS011;9487;50.892;6.906;2022-08-26T09:55:34;18.63;;;16.80;;
18716;SDS011;9487;50.892;6.906;2022-08-26T09:58:03;17.23;;;15.53;;
18716;SDS011;9487;50.892;6.906;2022-08-26T10:00:31;16.07;;;14.40;;
18716;SDS011;9487;50.892;6.906;2022-08-26T10:03:00;15.97;;;13.87;;
18716;SDS011;9487;50.892;6.906;2022-08-26T10:05:34;14.50;;;13.00;;
18716;SDS011;9487;50.892;6.906;2022-08-26T10:10:59;16.70;;;12.60;;
18716;SDS011;9487;50.892;6.906;2022-08-26T10:13:33;13.47;;;12.00;;
18716;SDS011;9487;50.892;6.906;2022-08-26T10:16:12;13.33;;;12.03;;
18716;SDS011;9487;50.892;6.906;2022-08-26T10:18:44;12.97;;;11.70;;
18716;SDS011;9487;50.892;6.906;2022-08-26T10:21:16;13.90;;;12.43;;
18716;SDS011;9487;50.892;6.906;2022-08-26T10:23:49;14.30;;;12.80;;
18716;SDS011;9487;50.892;6.906;2022-08-26T10:26:21;13.47;;;12.07;;
18716;SDS011;9487;50.892;6.906;2022-08-26T10:28:53;14.43;;;11.80;;
18716;SDS011;9487;50.892;6.906;2022-08-26T10:31:28;14.67;;;13.27;;
18716;SDS011;9487;50.892;6.906;2022-08-26T10:34:01;13.70;;;12.23;;
18716;SDS011;9487;50.892;6.906;2022-08-26T10:36:30;12.50;;;11.23;;
18716;SDS011;9487;50.892;6.906;2022-08-26T10:39:16;12.27;;;10.93;;
18716;SDS011;9487;50.892;6.906;2022-08-26T10:41:49;12.80;;;11.50;;
18716;SDS011;9487;50.892;6.906;2022-08-26T10:44:20;13.07;;;10.80;;
18716;SDS011;9487;50.892;6.906;2022-08-26T10:46:51;13.00;;;10.37;;
18716;SDS011;9487;50.892;6.906;2022-08-26T10:49:21;11.60;;;9.50;;
18716;SDS011;9487;50.892;6.906;2022-08-26T10:51:50;11.10;;;9.57;;
18716;SDS011;9487;50.892;6.906;2022-08-26T10:54:24;11.17;;;9.60;;
18716;SDS011;9487;50.892;6.906;2022-08-26T10:56:58;10.07;;;9.20;;
18716;SDS011;9487;50.892;6.906;2022-08-26T10:59:37;13.10;;;10.00;;
18716;SDS011;9487;50.892;6.906;2022-08-26T11:02:16;10.73;;;9.37;;
18716;SDS011;9487;50.892;6.906;2022-08-26T11:04:50;12.13;;;8.53;;
18716;SDS011;9487;50.892;6.906;2022-08-26T11:07:30;11.17;;;8.00;;
18716;SDS011;9487;50.892;6.906;2022-08-26T11:13:09;7.53;;;6.73;;
18716;SDS011;9487;50.892;6.906;2022-08-26T11:18:39;8.03;;;6.43;;
18716;SDS011;9487;50.892;6.906;2022-08-26T11:39:28;7.47;;;5.20;;
18716;SDS011;9487;50.892;6.906;2022-08-26T11:41:58;7.20;;;4.90;;
18716;SDS011;9487;50.892;6.906;2022-08-26T11:44:35;7.27;;;4.57;;
18716;SDS011;9487;50.892;6.906;2022-08-26T11:47:05;10.27;;;5.10;;
18716;SDS011;9487;50.892;6.906;2022-08-26T11:49:35;7.57;;;4.80;;
18716;SDS011;9487;50.892;6.906;2022-08-26T11:52:14;7.40;;;5.47;;
18716;SDS011;9487;50.892;6.906;2022-08-26T11:54:59;7.77;;;4.40;;
18716;SDS011;9487;50.892;6.906;2022-08-26T11:57:27;6.40;;;4.60;;
18716;SDS011;9487;50.892;6.906;2022-08-26T11:59:55;7.33;;;5.20;;
18716;SDS011;9487;50.892;6.906;2022-08-26T12:02:23;11.53;;;6.17;;
18716;SDS011;9487;50.892;6.906;2022-08-26T12:04:52;8.77;;;5.73;;
18716;SDS011;9487;50.892;6.906;2022-08-26T12:07:22;7.50;;;5.70;;
18716;SDS011;9487;50.892;6.906;2022-08-26T12:09:53;7.37;;;5.13;;
18716;SDS011;9487;50.892;6.906;2022-08-26T12:12:23;9.20;;;5.57;;
18716;SDS011;9487;50.892;6.906;2022-08-26T12:15:05;8.90;;;5.43;;
18716;SDS011;9487;50.892;6.906;2022-08-26T12:17:43;12.10;;;6.10;;
18716;SDS011;9487;50.892;6.906;2022-08-26T12:20:16;8.20;;;5.40;;
18716;SDS011;9487;50.892;6.906;2022-08-26T12:22:46;10.73;;;5.70;;
18716;SDS011;9487;50.892;6.906;2022-08-26T12:25:13;9.07;;;5.77;;
18716;SDS011;9487;50.892;6.906;2022-08-26T12:27:48;7.80;;;5.33;;
18716;SDS011;9487;50.892;6.906;2022-08-26T12:30:17;10.83;;;5.50;;
18716;SDS011;9487;50.892;6.906;2022-08-26T12:32:46;10.60;;;5.43;;
18716;SDS011;9487;50.892;6.906;2022-08-26T12:35:16;8.40;;;5.53;;
18716;SDS011;9487;50.892;6.906;2022-08-26T12:37:46;7.70;;;5.70;;
18716;SDS011;9487;50.892;6.906;2022-08-26T12:40:26;7.17;;;4.97;;
18716;SDS011;9487;50.892;6.906;2022-08-26T12:43:00;10.97;;;5.20;;
18716;SDS011;9487;50.892;6.906;2022-08-26T12:45:29;9.20;;;4.53;;
18716;SDS011;9487;50.892;6.906;2022-08-26T12:47:58;5.97;;;4.17;;
18716;SDS011;9487;50.892;6.906;2022-08-26T12:50:27;10.57;;;6.00;;
18716;SDS011;9487;50.892;6.906;2022-08-26T12:52:58;10.03;;;6.40;;
18716;SDS011;9487;50.892;6.906;2022-08-26T12:55:34;10.87;;;6.40;;
18716;SDS011;9487;50.892;6.906;2022-08-26T12:58:19;9.73;;;6.50;;
18716;SDS011;9487;50.892;6.906;2022-08-26T13:00:49;10.73;;;5.53;;
18716;SDS011;9487;50.892;6.906;2022-08-26T13:03:31;10.90;;;5.40;;
18716;SDS011;9487;50.892;6.906;2022-08-26T13:06:08;9.17;;;6.37;;
18716;SDS011;9487;50.892;6.906;2022-08-26T13:08:51;13.33;;;7.03;;
18716;SDS011;9487;50.892;6.906;2022-08-26T13:11:19;12.93;;;7.33;;
18716;SDS011;9487;50.892;6.906;2022-08-26T13:13:49;9.57;;;6.20;;
18716;SDS011;9487;50.892;6.906;2022-08-26T13:16:17;9.03;;;5.27;;
18716;SDS011;9487;50.892;6.906;2022-08-26T13:18:45;10.50;;;5.83;;
18716;SDS011;9487;50.892;6.906;2022-08-26T13:21:15;8.20;;;5.20;;
18716;SDS011;9487;50.892;6.906;2022-08-26T13:23:43;11.00;;;4.73;;
18716;SDS011;9487;50.892;6.906;2022-08-26T13:26:12;10.50;;;4.80;;
18716;SDS011;9487;50.892;6.906;2022-08-26T13:28:40;9.53;;;4.50;;
18716;SDS011;9487;50.892;6.906;2022-08-26T13:31:07;5.97;;;3.97;;
18716;SDS011;9487;50.892;6.906;2022-08-26T13:33:35;10.23;;;3.77;;
18716;SDS011;9487;50.892;6.906;2022-08-26T13:36:02;7.97;;;3.87;;
18716;SDS011;9487;50.892;6.906;2022-08-26T13:38:29;7.87;;;3.90;;
18716;SDS011;9487;50.892;6.906;2022-08-26T13:40:56;7.17;;;4.13;;
18716;SDS011;9487;50.892;6.906;2022-08-26T13:43:25;9.87;;;4.30;;
18716;SDS011;9487;50.892;6.906;2022-08-26T13:45:52;8.20;;;4.40;;
18716;SDS011;9487;50.892;6.906;2022-08-26T13:48:19;8.10;;;4.20;;
18716;SDS011;9487;50.892;6.906;2022-08-26T13:50:47;7.07;;;4.07;;
18716;SDS011;9487;50.892;6.906;2022-08-26T13:53:15;9.67;;;4.10;;
18716;SDS011;9487;50.892;6.906;2022-08-26T13:55:42;8.20;;;4.17;;
18716;SDS011;9487;50.892;6.906;2022-08-26T13:58:09;8.50;;;4.13;;
18716;SDS011;9487;50.892;6.906;2022-08-26T14:00:39;9.63;;;3.70;;
18716;SDS011;9487;50.892;6.906;2022-08-26T14:03:07;9.90;;;3.60;;
18716;SDS011;9487;50.892;6.906;2022-08-26T14:05:34;10.47;;;4.50;;
18716;SDS011;9487;50.892;6.906;2022-08-26T14:08:02;10.20;;;4.83;;
18716;SDS011;9487;50.892;6.906;2022-08-26T14:10:29;10.20;;;5.23;;
18716;SDS011;9487;50.892;6.906;2022-08-26T14:12:56;8.50;;;4.80;;
18716;SDS011;9487;50.892;6.906;2022-08-26T14:15:23;9.50;;;4.50;;
18716;SDS011;9487;50.892;6.906;2022-08-26T14:17:51;7.07;;;3.90;;
18716;SDS011;9487;50.892;6.906;2022-08-26T14:20:20;7.70;;;3.80;;
18716;SDS011;9487;50.892;6.906;2022-08-26T14:22:50;8.73;;;4.20;;
18716;SDS011;9487;50.892;6.906;2022-08-26T14:25:17;7.80;;;4.00;;
18716;SDS011;9487;50.892;6.906;2022-08-26T14:27:45;7.60;;;4.03;;
18716;SDS011;9487;50.892;6.906;2022-08-26T14:30:12;5.80;;;4.07;;
18716;SDS011;9487;50.892;6.906;2022-08-26T14:32:42;8.60;;;3.90;;
18716;SDS011;9487;50.892;6.906;2022-08-26T14:35:14;7.00;;;3.43;;
18716;SDS011;9487;50.892;6.906;2022-08-26T14:37:44;8.87;;;4.03;;
18716;SDS011;9487;50.892;6.906;2022-08-26T14:40:10;6.70;;;3.60;;
18716;SDS011;9487;50.892;6.906;2022-08-26T14:42:38;7.80;;;3.83;;
18716;SDS011;9487;50.892;6.906;2022-08-26T14:45:06;9.60;;;3.90;;
18716;SDS011;9487;50.892;6.906;2022-08-26T14:47:37;8.77;;;3.77;;
18716;SDS011;9487;50.892;6.906;2022-08-26T14:50:04;10.70;;;4.00;;
18716;SDS011;9487;50.892;6.906;2022-08-26T14:52:33;8.60;;;3.50;;
18716;SDS011;9487;50.892;6.906;2022-08-26T14:55:20;7.73;;;3.63;;
18716;SDS011;9487;50.892;6.906;2022-08-26T14:57:46;10.47;;;4.10;;
18716;SDS011;9487;50.892;6.906;2022-08-26T15:00:12;10.27;;;3.60;;
18716;SDS011;9487;50.892;6.906;2022-08-26T15:02:40;8.10;;;3.57;;
18716;SDS011;9487;50.892;6.906;2022-08-26T15:05:07;7.80;;;3.40;;
18716;SDS011;9487;50.892;6.906;2022-08-26T15:07:37;9.40;;;3.90;;
18716;SDS011;9487;50.892;6.906;2022-08-26T15:10:05;6.43;;;3.80;;
18716;SDS011;9487;50.892;6.906;2022-08-26T15:12:32;6.77;;;3.80;;
18716;SDS011;9487;50.892;6.906;2022-08-26T15:14:59;5.67;;;3.20;;
18716;SDS011;9487;50.892;6.906;2022-08-26T15:17:26;8.03;;;3.90;;
18716;SDS011;9487;50.892;6.906;2022-08-26T15:19:53;8.07;;;3.47;;
18716;SDS011;9487;50.892;6.906;2022-08-26T15:22:20;7.10;;;3.13;;
18716;SDS011;9487;50.892;6.906;2022-08-26T15:24:49;8.53;;;3.47;;